sensor_id;sensor_type;location;lat;lon;timestamp;P1;durP1;ratioP1;P2;durP2;ratioP2
82646;SDS011;72325;41.910;22.404;2024-03-02T00:00:04;15.57;;;11.73;;
82646;SDS011;72325;41.910;22.404;2024-03-02T00:02:43;21.80;;;15.32;;
82646;SDS011;72325;41.910;22.404;2024-03-02T00:05:19;24.52;;;15.68;;
82646;SDS011;72325;41.910;22.404;2024-03-02T00:07:46;23.67;;;17.83;;
82646;SDS011;72325;41.910;22.404;2024-03-02T00:10:19;22.48;;;15.18;;
82646;SDS011;72325;41.910;22.404;2024-03-02T00:12:46;27.40;;;17.42;;
82646;SDS011;72325;41.910;22.404;2024-03-02T00:15:58;25.40;;;16.42;;
82646;SDS011;72325;41.910;22.404;2024-03-02T00:17:59;21.27;;;17.52;;
82646;SDS011;72325;41.910;22.404;2024-03-02T00:20:25;24.70;;;17.42;;
82646;SDS011;72325;41.910;22.404;2024-03-02T00:22:56;29.02;;;21.42;;
82646;SDS011;72325;41.910;22.404;2024-03-02T00:25:26;26.40;;;19.63;;
82646;SDS011;72325;41.910;22.404;2024-03-02T00:27:52;27.85;;;21.52;;
82646;SDS011;72325;41.910;22.404;2024-03-02T00:30:54;19.90;;;13.75;;
82646;SDS011;72325;41.910;22.404;2024-03-02T00:33:10;21.00;;;17.00;;
82646;SDS011;72325;41.910;22.404;2024-03-02T00:35:36;17.88;;;14.27;;
82646;SDS011;72325;41.910;22.404;2024-03-02T00:38:06;16.70;;;12.23;;
82646;SDS011;72325;41.910;22.404;2024-03-02T00:40:32;17.67;;;12.82;;
82646;SDS011;72325;41.910;22.404;2024-03-02T00:42:58;14.43;;;10.88;;
82646;SDS011;72325;41.910;22.404;2024-03-02T00:45:25;15.90;;;11.57;;
82646;SDS011;72325;41.910;22.404;2024-03-02T00:47:51;12.90;;;9.40;;
82646;SDS011;72325;41.910;22.404;2024-03-02T00:50:18;14.68;;;10.00;;
82646;SDS011;72325;41.910;22.404;2024-03-02T00:52:45;13.65;;;10.50;;
82646;SDS011;72325;41.910;22.404;2024-03-02T00:58:35;13.55;;;10.73;;
82646;SDS011;72325;41.910;22.404;2024-03-02T01:01:01;14.85;;;10.60;;
82646;SDS011;72325;41.910;22.404;2024-03-02T01:03:27;19.17;;;12.10;;
82646;SDS011;72325;41.910;22.404;2024-03-02T01:05:53;16.50;;;13.85;;
82646;SDS011;72325;41.910;22.404;2024-03-02T01:08:19;15.93;;;12.50;;
82646;SDS011;72325;41.910;22.404;2024-03-02T01:10:45;17.63;;;12.57;;
82646;SDS011;72325;41.910;22.404;2024-03-02T01:13:11;17.42;;;11.80;;
82646;SDS011;72325;41.910;22.404;2024-03-02T01:15:38;18.33;;;12.75;;
82646;SDS011;72325;41.910;22.404;2024-03-02T01:18:04;21.02;;;14.57;;
82646;SDS011;72325;41.910;22.404;2024-03-02T01:20:30;20.58;;;15.02;;
82646;SDS011;72325;41.910;22.404;2024-03-02T01:22:56;20.55;;;15.55;;
82646;SDS011;72325;41.910;22.404;2024-03-02T01:25:22;24.02;;;16.25;;
82646;SDS011;72325;41.910;22.404;2024-03-02T01:27:48;21.35;;;15.27;;
82646;SDS011;72325;41.910;22.404;2024-03-02T01:30:16;24.33;;;16.42;;
82646;SDS011;72325;41.910;22.404;2024-03-02T01:32:42;22.73;;;16.60;;
82646;SDS011;72325;41.910;22.404;2024-03-02T01:35:08;20.08;;;16.35;;
82646;SDS011;72325;41.910;22.404;2024-03-02T01:37:34;22.90;;;14.88;;
82646;SDS011;72325;41.910;22.404;2024-03-02T01:43:04;22.92;;;17.10;;
82646;SDS011;72325;41.910;22.404;2024-03-02T01:45:31;20.38;;;16.95;;
82646;SDS011;72325;41.910;22.404;2024-03-02T01:47:57;24.10;;;17.75;;
82646;SDS011;72325;41.910;22.404;2024-03-02T01:50:31;25.58;;;18.27;;
82646;SDS011;72325;41.910;22.404;2024-03-02T01:52:57;28.13;;;20.02;;
82646;SDS011;72325;41.910;22.404;2024-03-02T01:55:24;21.55;;;15.95;;
82646;SDS011;72325;41.910;22.404;2024-03-02T01:57:51;19.05;;;14.15;;
82646;SDS011;72325;41.910;22.404;2024-03-02T02:00:18;18.63;;;13.32;;
82646;SDS011;72325;41.910;22.404;2024-03-02T02:02:44;19.23;;;13.85;;
82646;SDS011;72325;41.910;22.404;2024-03-02T02:05:10;19.13;;;13.60;;
82646;SDS011;72325;41.910;22.404;2024-03-02T02:07:36;17.52;;;13.10;;
82646;SDS011;72325;41.910;22.404;2024-03-02T02:13:06;18.13;;;12.38;;
82646;SDS011;72325;41.910;22.404;2024-03-02T02:15:33;17.85;;;13.07;;
82646;SDS011;72325;41.910;22.404;2024-03-02T02:18:01;16.15;;;12.40;;
82646;SDS011;72325;41.910;22.404;2024-03-02T02:20:28;18.42;;;14.27;;
82646;SDS011;72325;41.910;22.404;2024-03-02T02:29:01;20.58;;;14.27;;
82646;SDS011;72325;41.910;22.404;2024-03-02T02:31:36;20.48;;;13.40;;
82646;SDS011;72325;41.910;22.404;2024-03-02T02:34:02;24.67;;;16.00;;
82646;SDS011;72325;41.910;22.404;2024-03-02T02:36:28;22.92;;;15.55;;
82646;SDS011;72325;41.910;22.404;2024-03-02T02:38:54;19.88;;;14.75;;
82646;SDS011;72325;41.910;22.404;2024-03-02T02:41:21;19.90;;;14.05;;
82646;SDS011;72325;41.910;22.404;2024-03-02T02:43:47;19.77;;;14.73;;
82646;SDS011;72325;41.910;22.404;2024-03-02T02:46:13;20.38;;;14.50;;
82646;SDS011;72325;41.910;22.404;2024-03-02T02:48:39;20.70;;;14.95;;
82646;SDS011;72325;41.910;22.404;2024-03-02T02:51:05;19.90;;;14.20;;
82646;SDS011;72325;41.910;22.404;2024-03-02T02:53:31;20.48;;;14.90;;
82646;SDS011;72325;41.910;22.404;2024-03-02T02:55:57;23.40;;;16.00;;
82646;SDS011;72325;41.910;22.404;2024-03-02T02:58:24;19.00;;;14.77;;
82646;SDS011;72325;41.910;22.404;2024-03-02T03:00:50;21.52;;;15.23;;
82646;SDS011;72325;41.910;22.404;2024-03-02T03:03:16;20.38;;;14.88;;
82646;SDS011;72325;41.910;22.404;2024-03-02T03:05:42;19.83;;;14.20;;
82646;SDS011;72325;41.910;22.404;2024-03-02T03:08:08;16.30;;;12.85;;
82646;SDS011;72325;41.910;22.404;2024-03-02T03:10:34;15.20;;;11.55;;
82646;SDS011;72325;41.910;22.404;2024-03-02T03:13:00;11.68;;;8.25;;
82646;SDS011;72325;41.910;22.404;2024-03-02T03:15:27;12.32;;;9.55;;
82646;SDS011;72325;41.910;22.404;2024-03-02T03:17:53;12.23;;;8.75;;
82646;SDS011;72325;41.910;22.404;2024-03-02T03:20:19;13.20;;;10.05;;
82646;SDS011;72325;41.910;22.404;2024-03-02T03:22:46;14.45;;;9.85;;
82646;SDS011;72325;41.910;22.404;2024-03-02T03:28:16;10.68;;;7.82;;
82646;SDS011;72325;41.910;22.404;2024-03-02T03:30:43;11.73;;;8.82;;
82646;SDS011;72325;41.910;22.404;2024-03-02T03:33:09;12.77;;;8.43;;
82646;SDS011;72325;41.910;22.404;2024-03-02T03:35:36;12.82;;;8.43;;
82646;SDS011;72325;41.910;22.404;2024-03-02T03:38:02;10.02;;;7.97;;
82646;SDS011;72325;41.910;22.404;2024-03-02T03:43:32;11.48;;;7.57;;
82646;SDS011;72325;41.910;22.404;2024-03-02T03:45:58;9.70;;;8.02;;
82646;SDS011;72325;41.910;22.404;2024-03-02T03:48:24;9.15;;;6.85;;
82646;SDS011;72325;41.910;22.404;2024-03-02T03:50:55;10.98;;;8.15;;
82646;SDS011;72325;41.910;22.404;2024-03-02T03:53:21;10.13;;;7.55;;
82646;SDS011;72325;41.910;22.404;2024-03-02T03:55:48;8.52;;;7.10;;
82646;SDS011;72325;41.910;22.404;2024-03-02T03:58:14;9.32;;;7.25;;
82646;SDS011;72325;41.910;22.404;2024-03-02T04:00:42;8.93;;;7.25;;
82646;SDS011;72325;41.910;22.404;2024-03-02T04:03:08;11.73;;;7.93;;
82646;SDS011;72325;41.910;22.404;2024-03-02T04:05:34;10.13;;;7.35;;
82646;SDS011;72325;41.910;22.404;2024-03-02T04:08:00;11.27;;;8.13;;
82646;SDS011;72325;41.910;22.404;2024-03-02T04:13:30;12.98;;;9.13;;
82646;SDS011;72325;41.910;22.404;2024-03-02T04:15:56;13.95;;;10.82;;
82646;SDS011;72325;41.910;22.404;2024-03-02T04:18:22;15.60;;;12.05;;
82646;SDS011;72325;41.910;22.404;2024-03-02T04:20:48;17.52;;;13.32;;
82646;SDS011;72325;41.910;22.404;2024-03-02T04:23:14;17.58;;;14.02;;
82646;SDS011;72325;41.910;22.404;2024-03-02T04:28:44;13.40;;;9.15;;
82646;SDS011;72325;41.910;22.404;2024-03-02T04:31:10;11.80;;;8.30;;
82646;SDS011;72325;41.910;22.404;2024-03-02T04:33:36;12.07;;;9.10;;
82646;SDS011;72325;41.910;22.404;2024-03-02T04:36:03;13.25;;;9.20;;
82646;SDS011;72325;41.910;22.404;2024-03-02T04:38:29;12.27;;;8.85;;
82646;SDS011;72325;41.910;22.404;2024-03-02T04:40:57;11.30;;;8.85;;
82646;SDS011;72325;41.910;22.404;2024-03-02T04:43:23;13.70;;;8.05;;
82646;SDS011;72325;41.910;22.404;2024-03-02T04:45:49;10.93;;;8.40;;
82646;SDS011;72325;41.910;22.404;2024-03-02T04:48:15;11.63;;;7.95;;
82646;SDS011;72325;41.910;22.404;2024-03-02T04:50:41;12.27;;;7.18;;
82646;SDS011;72325;41.910;22.404;2024-03-02T04:53:07;10.18;;;7.82;;
82646;SDS011;72325;41.910;22.404;2024-03-02T04:58:37;9.40;;;7.18;;
82646;SDS011;72325;41.910;22.404;2024-03-02T05:01:03;7.93;;;6.38;;
82646;SDS011;72325;41.910;22.404;2024-03-02T05:03:29;8.55;;;6.45;;
82646;SDS011;72325;41.910;22.404;2024-03-02T05:05:55;7.85;;;6.18;;
82646;SDS011;72325;41.910;22.404;2024-03-02T05:08:21;11.88;;;7.85;;
82646;SDS011;72325;41.910;22.404;2024-03-02T05:13:51;11.32;;;8.88;;
82646;SDS011;72325;41.910;22.404;2024-03-02T05:16:17;13.20;;;9.38;;
82646;SDS011;72325;41.910;22.404;2024-03-02T05:18:43;15.02;;;11.48;;
82646;SDS011;72325;41.910;22.404;2024-03-02T05:21:09;17.67;;;11.80;;
82646;SDS011;72325;41.910;22.404;2024-03-02T05:23:36;18.52;;;12.70;;
82646;SDS011;72325;41.910;22.404;2024-03-02T05:26:02;18.42;;;12.35;;
82646;SDS011;72325;41.910;22.404;2024-03-02T05:28:29;13.50;;;10.00;;
82646;SDS011;72325;41.910;22.404;2024-03-02T05:30:55;11.27;;;8.98;;
82646;SDS011;72325;41.910;22.404;2024-03-02T05:33:21;14.30;;;11.32;;
82646;SDS011;72325;41.910;22.404;2024-03-02T05:35:47;16.00;;;12.63;;
82646;SDS011;72325;41.910;22.404;2024-03-02T05:38:17;16.05;;;12.73;;
82646;SDS011;72325;41.910;22.404;2024-03-02T05:43:47;20.90;;;15.45;;
82646;SDS011;72325;41.910;22.404;2024-03-02T05:46:13;26.67;;;19.08;;
82646;SDS011;72325;41.910;22.404;2024-03-02T05:48:39;23.95;;;17.42;;
82646;SDS011;72325;41.910;22.404;2024-03-02T05:51:05;24.80;;;16.60;;
82646;SDS011;72325;41.910;22.404;2024-03-02T05:53:31;25.42;;;16.05;;
82646;SDS011;72325;41.910;22.404;2024-03-02T05:55:57;25.88;;;16.70;;
82646;SDS011;72325;41.910;22.404;2024-03-02T05:58:23;29.05;;;20.17;;
82646;SDS011;72325;41.910;22.404;2024-03-02T06:01:08;23.02;;;18.02;;
82646;SDS011;72325;41.910;22.404;2024-03-02T06:03:34;29.17;;;19.45;;
82646;SDS011;72325;41.910;22.404;2024-03-02T06:06:00;24.73;;;18.98;;
82646;SDS011;72325;41.910;22.404;2024-03-02T06:08:27;26.15;;;18.60;;
82646;SDS011;72325;41.910;22.404;2024-03-02T06:13:56;28.38;;;18.90;;
82646;SDS011;72325;41.910;22.404;2024-03-02T06:16:22;27.88;;;17.63;;
82646;SDS011;72325;41.910;22.404;2024-03-02T06:18:48;23.67;;;17.70;;
82646;SDS011;72325;41.910;22.404;2024-03-02T06:21:14;24.15;;;16.35;;
82646;SDS011;72325;41.910;22.404;2024-03-02T06:23:40;22.40;;;15.90;;
82646;SDS011;72325;41.910;22.404;2024-03-02T06:26:07;20.13;;;14.85;;
82646;SDS011;72325;41.910;22.404;2024-03-02T06:28:33;24.63;;;16.33;;
82646;SDS011;72325;41.910;22.404;2024-03-02T06:31:00;19.67;;;14.63;;
82646;SDS011;72325;41.910;22.404;2024-03-02T06:33:26;21.27;;;13.65;;
82646;SDS011;72325;41.910;22.404;2024-03-02T06:35:52;19.95;;;14.82;;
82646;SDS011;72325;41.910;22.404;2024-03-02T06:38:18;18.63;;;14.25;;
82646;SDS011;72325;41.910;22.404;2024-03-02T06:43:48;20.80;;;15.73;;
82646;SDS011;72325;41.910;22.404;2024-03-02T06:46:14;21.92;;;15.15;;
82646;SDS011;72325;41.910;22.404;2024-03-02T06:48:40;20.42;;;13.95;;
82646;SDS011;72325;41.910;22.404;2024-03-02T06:51:06;19.70;;;14.70;;
82646;SDS011;72325;41.910;22.404;2024-03-02T06:53:32;18.85;;;13.73;;
82646;SDS011;72325;41.910;22.404;2024-03-02T06:59:02;21.35;;;16.30;;
82646;SDS011;72325;41.910;22.404;2024-03-02T07:01:28;17.55;;;12.95;;
82646;SDS011;72325;41.910;22.404;2024-03-02T07:03:54;20.02;;;16.02;;
82646;SDS011;72325;41.910;22.404;2024-03-02T07:06:20;22.92;;;15.30;;
82646;SDS011;72325;41.910;22.404;2024-03-02T07:08:46;18.60;;;14.88;;
82646;SDS011;72325;41.910;22.404;2024-03-02T07:11:12;20.20;;;16.23;;
82646;SDS011;72325;41.910;22.404;2024-03-02T07:13:38;21.25;;;16.83;;
82646;SDS011;72325;41.910;22.404;2024-03-02T07:16:05;20.65;;;14.45;;
82646;SDS011;72325;41.910;22.404;2024-03-02T07:18:49;18.17;;;12.75;;
82646;SDS011;72325;41.910;22.404;2024-03-02T07:21:17;17.95;;;13.38;;
82646;SDS011;72325;41.910;22.404;2024-03-02T07:23:43;18.48;;;14.15;;
82646;SDS011;72325;41.910;22.404;2024-03-02T07:26:09;18.23;;;14.02;;
82646;SDS011;72325;41.910;22.404;2024-03-02T07:28:36;19.15;;;13.80;;
82646;SDS011;72325;41.910;22.404;2024-03-02T07:31:03;15.93;;;12.85;;
82646;SDS011;72325;41.910;22.404;2024-03-02T07:33:30;18.95;;;15.10;;
82646;SDS011;72325;41.910;22.404;2024-03-02T07:35:56;14.85;;;11.30;;
82646;SDS011;72325;41.910;22.404;2024-03-02T07:38:24;15.82;;;12.00;;
82646;SDS011;72325;41.910;22.404;2024-03-02T07:43:54;18.20;;;13.52;;
82646;SDS011;72325;41.910;22.404;2024-03-02T07:46:20;15.55;;;12.70;;
82646;SDS011;72325;41.910;22.404;2024-03-02T07:48:46;14.57;;;11.98;;
82646;SDS011;72325;41.910;22.404;2024-03-02T07:51:13;15.10;;;11.73;;
82646;SDS011;72325;41.910;22.404;2024-03-02T07:53:39;15.77;;;12.27;;
82646;SDS011;72325;41.910;22.404;2024-03-02T07:59:09;15.73;;;11.65;;
82646;SDS011;72325;41.910;22.404;2024-03-02T08:01:35;12.82;;;9.18;;
82646;SDS011;72325;41.910;22.404;2024-03-02T08:04:01;13.75;;;10.32;;
82646;SDS011;72325;41.910;22.404;2024-03-02T08:06:30;14.80;;;11.57;;
82646;SDS011;72325;41.910;22.404;2024-03-02T08:08:57;9.85;;;8.48;;
82646;SDS011;72325;41.910;22.404;2024-03-02T08:11:23;14.43;;;10.07;;
82646;SDS011;72325;41.910;22.404;2024-03-02T08:13:49;11.70;;;7.75;;
82646;SDS011;72325;41.910;22.404;2024-03-02T08:16:17;12.80;;;7.25;;
82646;SDS011;72325;41.910;22.404;2024-03-02T08:18:50;8.50;;;6.32;;
82646;SDS011;72325;41.910;22.404;2024-03-02T08:21:16;11.85;;;7.80;;
82646;SDS011;72325;41.910;22.404;2024-03-02T08:23:42;10.40;;;7.60;;
82646;SDS011;72325;41.910;22.404;2024-03-02T08:29:12;7.10;;;6.18;;
82646;SDS011;72325;41.910;22.404;2024-03-02T08:31:38;7.57;;;6.22;;
82646;SDS011;72325;41.910;22.404;2024-03-02T08:34:05;7.85;;;6.30;;
82646;SDS011;72325;41.910;22.404;2024-03-02T08:36:31;9.63;;;6.35;;
82646;SDS011;72325;41.910;22.404;2024-03-02T08:38:57;8.80;;;6.43;;
82646;SDS011;72325;41.910;22.404;2024-03-02T08:41:23;8.32;;;6.20;;
82646;SDS011;72325;41.910;22.404;2024-03-02T08:43:50;8.38;;;6.50;;
82646;SDS011;72325;41.910;22.404;2024-03-02T08:46:16;9.07;;;7.55;;
82646;SDS011;72325;41.910;22.404;2024-03-02T08:48:42;8.43;;;6.38;;
82646;SDS011;72325;41.910;22.404;2024-03-02T08:51:08;10.77;;;8.30;;
82646;SDS011;72325;41.910;22.404;2024-03-02T08:53:35;7.95;;;6.72;;
82646;SDS011;72325;41.910;22.404;2024-03-02T08:59:06;10.27;;;7.82;;
82646;SDS011;72325;41.910;22.404;2024-03-02T09:01:32;8.77;;;7.10;;
82646;SDS011;72325;41.910;22.404;2024-03-02T09:03:58;10.35;;;6.43;;
82646;SDS011;72325;41.910;22.404;2024-03-02T09:06:24;8.90;;;6.50;;
82646;SDS011;72325;41.910;22.404;2024-03-02T09:08:50;20.58;;;12.95;;
82646;SDS011;72325;41.910;22.404;2024-03-02T09:14:20;10.27;;;6.82;;
82646;SDS011;72325;41.910;22.404;2024-03-02T09:16:47;11.05;;;7.72;;
82646;SDS011;72325;41.910;22.404;2024-03-02T09:19:13;6.82;;;6.13;;
82646;SDS011;72325;41.910;22.404;2024-03-02T09:21:39;10.50;;;6.72;;
82646;SDS011;72325;41.910;22.404;2024-03-02T09:24:05;13.10;;;9.82;;
82646;SDS011;72325;41.910;22.404;2024-03-02T09:26:31;10.32;;;7.95;;
82646;SDS011;72325;41.910;22.404;2024-03-02T09:28:57;7.03;;;5.60;;
82646;SDS011;72325;41.910;22.404;2024-03-02T09:31:24;6.05;;;4.35;;
82646;SDS011;72325;41.910;22.404;2024-03-02T09:33:50;5.45;;;4.40;;
82646;SDS011;72325;41.910;22.404;2024-03-02T09:36:20;5.95;;;5.20;;
82646;SDS011;72325;41.910;22.404;2024-03-02T09:38:47;7.53;;;5.28;;
82646;SDS011;72325;41.910;22.404;2024-03-02T09:44:16;5.55;;;4.28;;
82646;SDS011;72325;41.910;22.404;2024-03-02T09:46:43;7.30;;;5.35;;
82646;SDS011;72325;41.910;22.404;2024-03-02T09:49:10;4.68;;;3.63;;
82646;SDS011;72325;41.910;22.404;2024-03-02T09:51:37;6.25;;;4.45;;
82646;SDS011;72325;41.910;22.404;2024-03-02T09:54:03;5.78;;;4.15;;
82646;SDS011;72325;41.910;22.404;2024-03-02T09:59:51;5.38;;;3.35;;
82646;SDS011;72325;41.910;22.404;2024-03-02T10:02:17;5.43;;;3.60;;
82646;SDS011;72325;41.910;22.404;2024-03-02T10:04:44;6.68;;;4.10;;
82646;SDS011;72325;41.910;22.404;2024-03-02T10:09:38;6.97;;;5.65;;
82646;SDS011;72325;41.910;22.404;2024-03-02T10:12:04;5.88;;;4.53;;
82646;SDS011;72325;41.910;22.404;2024-03-02T10:14:31;6.75;;;5.45;;
82646;SDS011;72325;41.910;22.404;2024-03-02T10:17:13;13.93;;;6.68;;
82646;SDS011;72325;41.910;22.404;2024-03-02T10:19:40;7.03;;;5.05;;
82646;SDS011;72325;41.910;22.404;2024-03-02T10:22:07;7.70;;;4.78;;
82646;SDS011;72325;41.910;22.404;2024-03-02T10:24:37;5.95;;;4.10;;
82646;SDS011;72325;41.910;22.404;2024-03-02T10:27:07;4.93;;;3.30;;
82646;SDS011;72325;41.910;22.404;2024-03-02T10:29:36;3.90;;;2.90;;
82646;SDS011;72325;41.910;22.404;2024-03-02T10:32:03;5.22;;;3.33;;
82646;SDS011;72325;41.910;22.404;2024-03-02T10:34:31;5.28;;;2.70;;
82646;SDS011;72325;41.910;22.404;2024-03-02T10:36:57;4.68;;;3.15;;
82646;SDS011;72325;41.910;22.404;2024-03-02T10:39:24;4.57;;;3.20;;
82646;SDS011;72325;41.910;22.404;2024-03-02T10:41:50;4.28;;;3.45;;
82646;SDS011;72325;41.910;22.404;2024-03-02T10:44:18;4.70;;;2.92;;
82646;SDS011;72325;41.910;22.404;2024-03-02T10:46:45;7.53;;;3.35;;
82646;SDS011;72325;41.910;22.404;2024-03-02T10:49:11;3.78;;;2.63;;
82646;SDS011;72325;41.910;22.404;2024-03-02T10:51:38;3.92;;;2.53;;
82646;SDS011;72325;41.910;22.404;2024-03-02T10:54:04;4.65;;;3.17;;
82646;SDS011;72325;41.910;22.404;2024-03-02T10:59:35;5.43;;;2.92;;
82646;SDS011;72325;41.910;22.404;2024-03-02T11:02:04;5.57;;;3.10;;
82646;SDS011;72325;41.910;22.404;2024-03-02T11:07:00;5.53;;;3.25;;
82646;SDS011;72325;41.910;22.404;2024-03-02T11:09:28;9.35;;;3.30;;
82646;SDS011;72325;41.910;22.404;2024-03-02T11:12:16;4.82;;;3.22;;
82646;SDS011;72325;41.910;22.404;2024-03-02T11:14:44;7.43;;;3.55;;
82646;SDS011;72325;41.910;22.404;2024-03-02T11:17:11;5.18;;;3.45;;
82646;SDS011;72325;41.910;22.404;2024-03-02T11:19:40;4.07;;;2.50;;
82646;SDS011;72325;41.910;22.404;2024-03-02T11:22:07;6.20;;;3.00;;
82646;SDS011;72325;41.910;22.404;2024-03-02T11:24:34;6.95;;;3.33;;
82646;SDS011;72325;41.910;22.404;2024-03-02T11:27:03;8.55;;;3.35;;
82646;SDS011;72325;41.910;22.404;2024-03-02T11:32:06;4.88;;;2.78;;
82646;SDS011;72325;41.910;22.404;2024-03-02T11:34:35;5.28;;;3.00;;
82646;SDS011;72325;41.910;22.404;2024-03-02T11:37:04;7.18;;;3.20;;
82646;SDS011;72325;41.910;22.404;2024-03-02T11:39:31;6.75;;;4.00;;
82646;SDS011;72325;41.910;22.404;2024-03-02T11:41:57;3.85;;;1.73;;
82646;SDS011;72325;41.910;22.404;2024-03-02T11:44:27;3.88;;;2.30;;
82646;SDS011;72325;41.910;22.404;2024-03-02T11:49:38;5.40;;;2.40;;
82646;SDS011;72325;41.910;22.404;2024-03-02T11:52:05;6.40;;;3.40;;
82646;SDS011;72325;41.910;22.404;2024-03-02T11:54:35;6.97;;;2.85;;
82646;SDS011;72325;41.910;22.404;2024-03-02T11:57:04;5.65;;;2.35;;
82646;SDS011;72325;41.910;22.404;2024-03-02T11:59:31;7.65;;;2.65;;
82646;SDS011;72325;41.910;22.404;2024-03-02T12:01:57;6.85;;;2.70;;
82646;SDS011;72325;41.910;22.404;2024-03-02T12:04:24;7.95;;;3.25;;
82646;SDS011;72325;41.910;22.404;2024-03-02T12:06:54;4.82;;;2.75;;
82646;SDS011;72325;41.910;22.404;2024-03-02T12:09:21;3.65;;;1.55;;
82646;SDS011;72325;41.910;22.404;2024-03-02T12:14:52;5.20;;;2.80;;
82646;SDS011;72325;41.910;22.404;2024-03-02T12:19:46;5.28;;;2.58;;
82646;SDS011;72325;41.910;22.404;2024-03-02T12:22:12;5.60;;;2.42;;
82646;SDS011;72325;41.910;22.404;2024-03-02T12:24:38;5.38;;;2.92;;
82646;SDS011;72325;41.910;22.404;2024-03-02T12:27:07;6.10;;;2.70;;
82646;SDS011;72325;41.910;22.404;2024-03-02T12:29:34;8.52;;;3.30;;
82646;SDS011;72325;41.910;22.404;2024-03-02T12:32:00;8.32;;;3.95;;
82646;SDS011;72325;41.910;22.404;2024-03-02T12:34:29;6.47;;;4.18;;
82646;SDS011;72325;41.910;22.404;2024-03-02T12:36:55;6.45;;;4.50;;
82646;SDS011;72325;41.910;22.404;2024-03-02T12:39:21;9.07;;;3.15;;
82646;SDS011;72325;41.910;22.404;2024-03-02T12:44:52;4.88;;;2.25;;
82646;SDS011;72325;41.910;22.404;2024-03-02T12:47:21;7.85;;;3.60;;
82646;SDS011;72325;41.910;22.404;2024-03-02T12:49:47;8.77;;;3.90;;
82646;SDS011;72325;41.910;22.404;2024-03-02T12:52:13;7.40;;;4.28;;
82646;SDS011;72325;41.910;22.404;2024-03-02T12:54:39;9.40;;;4.22;;
82646;SDS011;72325;41.910;22.404;2024-03-02T12:57:05;7.32;;;3.65;;
82646;SDS011;72325;41.910;22.404;2024-03-02T12:59:32;8.10;;;4.10;;
82646;SDS011;72325;41.910;22.404;2024-03-02T13:01:58;6.10;;;2.65;;
82646;SDS011;72325;41.910;22.404;2024-03-02T13:04:27;7.05;;;2.85;;
82646;SDS011;72325;41.910;22.404;2024-03-02T13:06:54;6.38;;;2.75;;
82646;SDS011;72325;41.910;22.404;2024-03-02T13:09:21;7.18;;;3.20;;
82646;SDS011;72325;41.910;22.404;2024-03-02T13:14:51;11.35;;;5.68;;
82646;SDS011;72325;41.910;22.404;2024-03-02T13:17:18;6.43;;;3.10;;
82646;SDS011;72325;41.910;22.404;2024-03-02T13:19:53;8.80;;;2.70;;
82646;SDS011;72325;41.910;22.404;2024-03-02T13:22:20;5.80;;;2.90;;
82646;SDS011;72325;41.910;22.404;2024-03-02T13:24:47;7.72;;;2.90;;
82646;SDS011;72325;41.910;22.404;2024-03-02T13:27:13;7.88;;;3.60;;
82646;SDS011;72325;41.910;22.404;2024-03-02T13:29:40;7.47;;;3.08;;
82646;SDS011;72325;41.910;22.404;2024-03-02T13:32:06;9.05;;;3.70;;
82646;SDS011;72325;41.910;22.404;2024-03-02T13:34:32;6.32;;;2.03;;
82646;SDS011;72325;41.910;22.404;2024-03-02T13:36:58;8.15;;;3.28;;
82646;SDS011;72325;41.910;22.404;2024-03-02T13:39:26;8.75;;;3.33;;
82646;SDS011;72325;41.910;22.404;2024-03-02T13:44:59;5.13;;;2.33;;
82646;SDS011;72325;41.910;22.404;2024-03-02T13:47:25;12.90;;;6.65;;
82646;SDS011;72325;41.910;22.404;2024-03-02T13:49:52;7.53;;;4.65;;
82646;SDS011;72325;41.910;22.404;2024-03-02T13:52:18;6.20;;;2.10;;
82646;SDS011;72325;41.910;22.404;2024-03-02T13:54:46;9.63;;;4.18;;
82646;SDS011;72325;41.910;22.404;2024-03-02T13:57:12;5.88;;;1.98;;
82646;SDS011;72325;41.910;22.404;2024-03-02T13:59:39;4.97;;;1.98;;
82646;SDS011;72325;41.910;22.404;2024-03-02T14:02:06;4.50;;;2.38;;
82646;SDS011;72325;41.910;22.404;2024-03-02T14:04:35;6.18;;;1.88;;
82646;SDS011;72325;41.910;22.404;2024-03-02T14:07:02;6.13;;;2.20;;
82646;SDS011;72325;41.910;22.404;2024-03-02T14:09:28;6.40;;;2.35;;
82646;SDS011;72325;41.910;22.404;2024-03-02T14:14:58;7.00;;;2.20;;
82646;SDS011;72325;41.910;22.404;2024-03-02T14:17:27;5.43;;;2.78;;
82646;SDS011;72325;41.910;22.404;2024-03-02T14:19:53;6.93;;;3.35;;
82646;SDS011;72325;41.910;22.404;2024-03-02T14:22:19;9.90;;;3.60;;
82646;SDS011;72325;41.910;22.404;2024-03-02T14:24:46;6.45;;;2.65;;
82646;SDS011;72325;41.910;22.404;2024-03-02T14:27:13;5.70;;;3.28;;
82646;SDS011;72325;41.910;22.404;2024-03-02T14:29:39;9.13;;;3.67;;
82646;SDS011;72325;41.910;22.404;2024-03-02T14:32:06;7.22;;;3.15;;
82646;SDS011;72325;41.910;22.404;2024-03-02T14:34:32;8.32;;;2.60;;
82646;SDS011;72325;41.910;22.404;2024-03-02T14:36:58;9.75;;;2.95;;
82646;SDS011;72325;41.910;22.404;2024-03-02T14:39:25;6.30;;;2.97;;
82646;SDS011;72325;41.910;22.404;2024-03-02T14:44:55;4.68;;;2.50;;
82646;SDS011;72325;41.910;22.404;2024-03-02T14:47:21;6.53;;;3.53;;
82646;SDS011;72325;41.910;22.404;2024-03-02T14:49:47;11.38;;;4.35;;
82646;SDS011;72325;41.910;22.404;2024-03-02T14:52:13;11.82;;;6.65;;
82646;SDS011;72325;41.910;22.404;2024-03-02T14:54:39;10.60;;;6.10;;
82646;SDS011;72325;41.910;22.404;2024-03-02T15:00:10;6.47;;;2.88;;
82646;SDS011;72325;41.910;22.404;2024-03-02T15:02:37;4.95;;;2.28;;
82646;SDS011;72325;41.910;22.404;2024-03-02T15:05:03;6.78;;;2.80;;
82646;SDS011;72325;41.910;22.404;2024-03-02T15:07:31;10.38;;;5.63;;
82646;SDS011;72325;41.910;22.404;2024-03-02T15:09:57;7.75;;;2.85;;
82646;SDS011;72325;41.910;22.404;2024-03-02T15:12:23;9.18;;;4.47;;
82646;SDS011;72325;41.910;22.404;2024-03-02T15:14:49;13.80;;;6.47;;
82646;SDS011;72325;41.910;22.404;2024-03-02T15:17:16;14.88;;;6.97;;
82646;SDS011;72325;41.910;22.404;2024-03-02T15:19:43;11.75;;;6.50;;
82646;SDS011;72325;41.910;22.404;2024-03-02T15:22:10;15.40;;;8.30;;
82646;SDS011;72325;41.910;22.404;2024-03-02T15:24:36;14.10;;;8.43;;
82646;SDS011;72325;41.910;22.404;2024-03-02T15:30:06;22.45;;;13.82;;
82646;SDS011;72325;41.910;22.404;2024-03-02T15:32:32;17.25;;;10.00;;
82646;SDS011;72325;41.910;22.404;2024-03-02T15:34:59;13.05;;;7.40;;
82646;SDS011;72325;41.910;22.404;2024-03-02T15:37:25;10.57;;;6.55;;
82646;SDS011;72325;41.910;22.404;2024-03-02T15:39:51;8.90;;;5.18;;
82646;SDS011;72325;41.910;22.404;2024-03-02T15:45:21;6.10;;;3.65;;
82646;SDS011;72325;41.910;22.404;2024-03-02T15:47:47;6.53;;;4.13;;
82646;SDS011;72325;41.910;22.404;2024-03-02T15:50:13;8.02;;;4.85;;
82646;SDS011;72325;41.910;22.404;2024-03-02T15:52:40;11.98;;;7.22;;
82646;SDS011;72325;41.910;22.404;2024-03-02T15:55:07;11.93;;;8.15;;
82646;SDS011;72325;41.910;22.404;2024-03-02T15:57:33;13.63;;;8.48;;
82646;SDS011;72325;41.910;22.404;2024-03-02T16:00:00;13.82;;;8.80;;
82646;SDS011;72325;41.910;22.404;2024-03-02T16:02:26;17.40;;;9.23;;
82646;SDS011;72325;41.910;22.404;2024-03-02T16:04:52;12.70;;;6.53;;
82646;SDS011;72325;41.910;22.404;2024-03-02T16:07:18;13.48;;;7.53;;
82646;SDS011;72325;41.910;22.404;2024-03-02T16:09:44;11.75;;;6.50;;